CYZU

Whitecourt Airport

Whitecourt, Alberta, Canada
METAR CYZU 240500Z 27007KT 15SM FEW067 FEW200 M01/M12 A2951 RMK AC1CI1 LAST OBS/NEXT 241300Z SLP038
Observed Flight Rules
Feb-24 @ 05:00 UTC (7 hours ago) Visual Flight Rules
Wind Visibility Clouds
270° at 7 knots 15 miles
  • Few at 6,700' AGL
  • Few at 20,000' AGL
Temperatures Readings
Current -1°C / 30°F
Dewpoint -12°C / 10°F
Humidity 43%
Altimeter 29.51" Hg
Pressure 1003.8 hPa
Elevation 785
METAR CYZU 240500Z 27007KT 15SM FEW067 FEW200 M01/M12 A2951 RMK AC1CI1 LAST OBS/NEXT 241300Z SLP038
Observed Flight Rules
Feb-24 @ 05:00 UTC
(7 hours ago)
VFR
Wind Visibility
270° at 7 knots 15 miles
Clouds
  • Few at 6,700' AGL
  • Few at 20,000' AGL
Temperature Dewpoint
-1°C / 30°F -12°C / 10°F
Humidity Altimeter Pressure
43% 29.51" Hg 1003.8 hPa